sensor_id;sensor_type;location;lat;lon;timestamp;temperature;humidity
52451;DHT22;38366;53.176;6.540;2022-11-20T00:02:23;0.40;99.90
52451;DHT22;38366;53.176;6.540;2022-11-20T00:04:49;0.40;99.90
52451;DHT22;38366;53.176;6.540;2022-11-20T00:07:14;0.40;99.90
52451;DHT22;38366;53.176;6.540;2022-11-20T00:09:40;0.40;99.90
52451;DHT22;38366;53.176;6.540;2022-11-20T00:12:06;0.40;99.90
52451;DHT22;38366;53.176;6.540;2022-11-20T00:14:31;0.40;99.90
52451;DHT22;38366;53.176;6.540;2022-11-20T00:16:57;0.40;99.90
52451;DHT22;38366;53.176;6.540;2022-11-20T00:19:22;1.70;99.90
52451;DHT22;38366;53.176;6.540;2022-11-20T00:21:48;1.30;99.90
52451;DHT22;38366;53.176;6.540;2022-11-20T00:24:16;0.40;99.90
52451;DHT22;38366;53.176;6.540;2022-11-20T00:26:42;0.40;99.90
52451;DHT22;38366;53.176;6.540;2022-11-20T00:29:09;0.40;99.90
52451;DHT22;38366;53.176;6.540;2022-11-20T00:31:35;0.40;99.90
52451;DHT22;38366;53.176;6.540;2022-11-20T00:34:01;0.30;99.90
52451;DHT22;38366;53.176;6.540;2022-11-20T00:36:28;0.40;99.90
52451;DHT22;38366;53.176;6.540;2022-11-20T00:38:58;0.40;99.90
52451;DHT22;38366;53.176;6.540;2022-11-20T00:41:25;0.30;99.90
52451;DHT22;38366;53.176;6.540;2022-11-20T00:43:53;1.10;99.90
52451;DHT22;38366;53.176;6.540;2022-11-20T00:46:21;0.40;99.90
52451;DHT22;38366;53.176;6.540;2022-11-20T00:48:48;0.40;99.90
52451;DHT22;38366;53.176;6.540;2022-11-20T00:51:19;1.20;99.90
52451;DHT22;38366;53.176;6.540;2022-11-20T00:53:45;0.40;99.90
52451;DHT22;38366;53.176;6.540;2022-11-20T00:56:13;0.50;99.90
52451;DHT22;38366;53.176;6.540;2022-11-20T00:58:41;0.40;99.90
52451;DHT22;38366;53.176;6.540;2022-11-20T01:01:21;0.40;99.90
52451;DHT22;38366;53.176;6.540;2022-11-20T01:03:51;0.40;99.90
52451;DHT22;38366;53.176;6.540;2022-11-20T01:08:52;0.40;99.90
52451;DHT22;38366;53.176;6.540;2022-11-20T01:11:20;0.50;99.90
52451;DHT22;38366;53.176;6.540;2022-11-20T01:13:48;0.40;99.90
52451;DHT22;38366;53.176;6.540;2022-11-20T01:16:28;0.40;99.90
52451;DHT22;38366;53.176;6.540;2022-11-20T01:18:57;0.40;99.90
52451;DHT22;38366;53.176;6.540;2022-11-20T01:21:28;0.40;99.90
52451;DHT22;38366;53.176;6.540;2022-11-20T01:23:54;0.40;99.90
52451;DHT22;38366;53.176;6.540;2022-11-20T01:26:23;0.40;99.90
52451;DHT22;38366;53.176;6.540;2022-11-20T01:28:55;0.40;99.90
52451;DHT22;38366;53.176;6.540;2022-11-20T01:31:29;0.50;99.90
52451;DHT22;38366;53.176;6.540;2022-11-20T01:33:57;0.50;99.90
52451;DHT22;38366;53.176;6.540;2022-11-20T01:36:25;0.50;99.90
52451;DHT22;38366;53.176;6.540;2022-11-20T01:38:56;0.50;99.90
52451;DHT22;38366;53.176;6.540;2022-11-20T01:41:23;0.50;99.90
52451;DHT22;38366;53.176;6.540;2022-11-20T01:44:10;0.70;99.90
52451;DHT22;38366;53.176;6.540;2022-11-20T01:46:38;0.50;99.90
52451;DHT22;38366;53.176;6.540;2022-11-20T01:49:19;0.50;99.90
52451;DHT22;38366;53.176;6.540;2022-11-20T01:51:58;0.50;99.90
52451;DHT22;38366;53.176;6.540;2022-11-20T01:54:34;0.50;99.90
52451;DHT22;38366;53.176;6.540;2022-11-20T01:57:01;0.60;99.90
52451;DHT22;38366;53.176;6.540;2022-11-20T01:59:28;0.60;99.90
52451;DHT22;38366;53.176;6.540;2022-11-20T02:01:55;0.90;99.90
52451;DHT22;38366;53.176;6.540;2022-11-20T02:04:21;0.60;99.90
52451;DHT22;38366;53.176;6.540;2022-11-20T02:06:51;0.60;99.90
52451;DHT22;38366;53.176;6.540;2022-11-20T02:09:22;0.60;99.90
52451;DHT22;38366;53.176;6.540;2022-11-20T02:11:47;0.50;99.90
52451;DHT22;38366;53.176;6.540;2022-11-20T02:14:13;0.50;99.90
52451;DHT22;38366;53.176;6.540;2022-11-20T02:16:45;0.60;99.90
52451;DHT22;38366;53.176;6.540;2022-11-20T02:19:27;0.60;99.90
52451;DHT22;38366;53.176;6.540;2022-11-20T02:22:05;0.50;99.90
52451;DHT22;38366;53.176;6.540;2022-11-20T02:24:31;0.50;99.90
52451;DHT22;38366;53.176;6.540;2022-11-20T02:27:09;0.50;99.90
52451;DHT22;38366;53.176;6.540;2022-11-20T02:32:16;0.50;99.90
52451;DHT22;38366;53.176;6.540;2022-11-20T02:34:42;0.50;99.90
52451;DHT22;38366;53.176;6.540;2022-11-20T02:37:08;0.50;99.90
52451;DHT22;38366;53.176;6.540;2022-11-20T02:39:34;0.50;99.90
52451;DHT22;38366;53.176;6.540;2022-11-20T02:42:00;0.50;99.90
52451;DHT22;38366;53.176;6.540;2022-11-20T02:44:26;2.50;99.90
52451;DHT22;38366;53.176;6.540;2022-11-20T02:46:52;0.50;99.90
52451;DHT22;38366;53.176;6.540;2022-11-20T02:49:17;0.50;99.90
52451;DHT22;38366;53.176;6.540;2022-11-20T02:51:43;1.70;99.90
52451;DHT22;38366;53.176;6.540;2022-11-20T02:54:09;0.50;99.90
52451;DHT22;38366;53.176;6.540;2022-11-20T02:56:38;0.60;99.90
52451;DHT22;38366;53.176;6.540;2022-11-20T02:59:03;0.90;99.90
52451;DHT22;38366;53.176;6.540;2022-11-20T03:01:29;0.60;99.90
52451;DHT22;38366;53.176;6.540;2022-11-20T03:03:55;0.60;99.90
52451;DHT22;38366;53.176;6.540;2022-11-20T03:06:21;0.60;99.90
52451;DHT22;38366;53.176;6.540;2022-11-20T03:08:47;0.70;99.90
52451;DHT22;38366;53.176;6.540;2022-11-20T03:11:13;0.70;99.90
52451;DHT22;38366;53.176;6.540;2022-11-20T03:13:38;0.70;99.90
52451;DHT22;38366;53.176;6.540;2022-11-20T03:16:27;0.70;99.90
52451;DHT22;38366;53.176;6.540;2022-11-20T03:18:52;1.30;99.90
52451;DHT22;38366;53.176;6.540;2022-11-20T03:21:18;0.70;99.90
52451;DHT22;38366;53.176;6.540;2022-11-20T03:23:44;0.70;99.90
52451;DHT22;38366;53.176;6.540;2022-11-20T03:26:19;2.10;99.90
52451;DHT22;38366;53.176;6.540;2022-11-20T03:28:49;0.70;99.90
52451;DHT22;38366;53.176;6.540;2022-11-20T03:31:18;0.80;99.90
52451;DHT22;38366;53.176;6.540;2022-11-20T03:33:44;0.80;99.90
52451;DHT22;38366;53.176;6.540;2022-11-20T03:36:13;0.90;99.90
52451;DHT22;38366;53.176;6.540;2022-11-20T03:38:39;0.70;99.90
52451;DHT22;38366;53.176;6.540;2022-11-20T03:41:08;0.80;99.90
52451;DHT22;38366;53.176;6.540;2022-11-20T03:43:34;0.80;99.90
52451;DHT22;38366;53.176;6.540;2022-11-20T03:46:01;1.00;99.90
52451;DHT22;38366;53.176;6.540;2022-11-20T03:48:27;0.80;99.90
52451;DHT22;38366;53.176;6.540;2022-11-20T03:50:54;0.80;99.90
52451;DHT22;38366;53.176;6.540;2022-11-20T03:53:31;0.80;99.90
52451;DHT22;38366;53.176;6.540;2022-11-20T03:55:57;0.80;99.90
52451;DHT22;38366;53.176;6.540;2022-11-20T03:58:22;0.80;99.90
52451;DHT22;38366;53.176;6.540;2022-11-20T04:00:48;2.20;99.90
52451;DHT22;38366;53.176;6.540;2022-11-20T04:03:14;0.80;99.90
52451;DHT22;38366;53.176;6.540;2022-11-20T04:05:39;0.80;99.90
52451;DHT22;38366;53.176;6.540;2022-11-20T04:08:05;0.70;99.90
52451;DHT22;38366;53.176;6.540;2022-11-20T04:10:31;0.80;99.90
52451;DHT22;38366;53.176;6.540;2022-11-20T04:12:56;0.70;99.90
52451;DHT22;38366;53.176;6.540;2022-11-20T04:15:22;0.70;99.90
52451;DHT22;38366;53.176;6.540;2022-11-20T04:17:47;0.80;99.90
52451;DHT22;38366;53.176;6.540;2022-11-20T04:20:13;0.80;99.90
52451;DHT22;38366;53.176;6.540;2022-11-20T04:22:40;0.80;99.90
52451;DHT22;38366;53.176;6.540;2022-11-20T04:25:05;0.80;99.90
52451;DHT22;38366;53.176;6.540;2022-11-20T04:27:31;0.80;99.90
52451;DHT22;38366;53.176;6.540;2022-11-20T04:29:57;0.80;99.90
52451;DHT22;38366;53.176;6.540;2022-11-20T04:32:22;0.80;99.90
52451;DHT22;38366;53.176;6.540;2022-11-20T04:34:48;2.00;99.90
52451;DHT22;38366;53.176;6.540;2022-11-20T04:37:14;0.80;99.90
52451;DHT22;38366;53.176;6.540;2022-11-20T04:39:40;0.80;99.90
52451;DHT22;38366;53.176;6.540;2022-11-20T04:42:05;0.70;99.90
52451;DHT22;38366;53.176;6.540;2022-11-20T04:44:49;0.80;99.90
52451;DHT22;38366;53.176;6.540;2022-11-20T04:47:15;0.80;99.90
52451;DHT22;38366;53.176;6.540;2022-11-20T04:49:41;0.80;99.90
52451;DHT22;38366;53.176;6.540;2022-11-20T04:52:06;0.90;99.90
52451;DHT22;38366;53.176;6.540;2022-11-20T04:54:32;0.80;99.90
52451;DHT22;38366;53.176;6.540;2022-11-20T04:56:58;0.80;99.90
52451;DHT22;38366;53.176;6.540;2022-11-20T04:59:23;0.80;99.90
52451;DHT22;38366;53.176;6.540;2022-11-20T05:01:49;0.80;99.90
52451;DHT22;38366;53.176;6.540;2022-11-20T05:04:15;0.80;99.90
52451;DHT22;38366;53.176;6.540;2022-11-20T05:06:40;0.80;99.90
52451;DHT22;38366;53.176;6.540;2022-11-20T05:09:06;0.80;99.90
52451;DHT22;38366;53.176;6.540;2022-11-20T05:11:32;0.80;99.90
52451;DHT22;38366;53.176;6.540;2022-11-20T05:13:59;0.80;99.90
52451;DHT22;38366;53.176;6.540;2022-11-20T05:16:25;0.80;99.90
52451;DHT22;38366;53.176;6.540;2022-11-20T05:18:52;0.80;99.90
52451;DHT22;38366;53.176;6.540;2022-11-20T05:21:18;0.70;99.90
52451;DHT22;38366;53.176;6.540;2022-11-20T05:23:45;1.00;99.90
52451;DHT22;38366;53.176;6.540;2022-11-20T05:26:21;0.70;99.90
52451;DHT22;38366;53.176;6.540;2022-11-20T05:28:50;0.70;99.90
52451;DHT22;38366;53.176;6.540;2022-11-20T05:31:19;0.70;99.90
52451;DHT22;38366;53.176;6.540;2022-11-20T05:33:45;0.70;99.90
52451;DHT22;38366;53.176;6.540;2022-11-20T05:36:12;0.70;99.90
52451;DHT22;38366;53.176;6.540;2022-11-20T05:38:39;0.70;99.90
52451;DHT22;38366;53.176;6.540;2022-11-20T05:41:15;0.70;99.90
52451;DHT22;38366;53.176;6.540;2022-11-20T05:43:42;0.70;99.90
52451;DHT22;38366;53.176;6.540;2022-11-20T05:46:10;1.80;99.90
52451;DHT22;38366;53.176;6.540;2022-11-20T05:48:37;0.70;99.90
52451;DHT22;38366;53.176;6.540;2022-11-20T05:51:05;0.70;99.90
52451;DHT22;38366;53.176;6.540;2022-11-20T05:53:32;0.70;99.90
52451;DHT22;38366;53.176;6.540;2022-11-20T05:58:24;0.80;99.90
52451;DHT22;38366;53.176;6.540;2022-11-20T06:00:49;0.80;99.90
52451;DHT22;38366;53.176;6.540;2022-11-20T06:03:15;0.80;99.90
52451;DHT22;38366;53.176;6.540;2022-11-20T06:05:41;0.80;99.90
52451;DHT22;38366;53.176;6.540;2022-11-20T06:08:06;0.80;99.90
52451;DHT22;38366;53.176;6.540;2022-11-20T06:10:32;1.90;99.90
52451;DHT22;38366;53.176;6.540;2022-11-20T06:12:58;2.20;99.90
52451;DHT22;38366;53.176;6.540;2022-11-20T06:15:24;0.80;99.90
52451;DHT22;38366;53.176;6.540;2022-11-20T06:17:53;0.80;99.90
52451;DHT22;38366;53.176;6.540;2022-11-20T06:20:19;1.00;99.90
52451;DHT22;38366;53.176;6.540;2022-11-20T06:22:45;0.80;99.90
52451;DHT22;38366;53.176;6.540;2022-11-20T06:25:10;0.80;99.90
52451;DHT22;38366;53.176;6.540;2022-11-20T06:27:36;0.80;99.90
52451;DHT22;38366;53.176;6.540;2022-11-20T06:30:02;0.80;99.90
52451;DHT22;38366;53.176;6.540;2022-11-20T06:32:28;0.80;99.90
52451;DHT22;38366;53.176;6.540;2022-11-20T06:34:54;0.80;99.90
52451;DHT22;38366;53.176;6.540;2022-11-20T06:37:19;0.80;99.90
52451;DHT22;38366;53.176;6.540;2022-11-20T06:39:45;1.50;99.90
52451;DHT22;38366;53.176;6.540;2022-11-20T06:42:11;0.80;99.90
52451;DHT22;38366;53.176;6.540;2022-11-20T06:44:36;0.90;99.90
52451;DHT22;38366;53.176;6.540;2022-11-20T06:47:02;0.80;99.90
52451;DHT22;38366;53.176;6.540;2022-11-20T06:49:28;0.90;99.90
52451;DHT22;38366;53.176;6.540;2022-11-20T06:51:53;0.80;99.90
52451;DHT22;38366;53.176;6.540;2022-11-20T06:54:19;0.90;99.90
52451;DHT22;38366;53.176;6.540;2022-11-20T06:56:48;0.90;99.90
52451;DHT22;38366;53.176;6.540;2022-11-20T06:59:14;0.80;99.90
52451;DHT22;38366;53.176;6.540;2022-11-20T07:01:39;0.80;99.90
52451;DHT22;38366;53.176;6.540;2022-11-20T07:04:05;1.20;99.90
52451;DHT22;38366;53.176;6.540;2022-11-20T07:06:31;0.90;99.90
52451;DHT22;38366;53.176;6.540;2022-11-20T07:08:57;0.90;99.90
52451;DHT22;38366;53.176;6.540;2022-11-20T07:11:23;0.90;99.90
52451;DHT22;38366;53.176;6.540;2022-11-20T07:13:49;1.00;99.90
52451;DHT22;38366;53.176;6.540;2022-11-20T07:16:15;0.90;99.90
52451;DHT22;38366;53.176;6.540;2022-11-20T07:18:41;0.90;99.90
52451;DHT22;38366;53.176;6.540;2022-11-20T07:21:08;0.90;99.90
52451;DHT22;38366;53.176;6.540;2022-11-20T07:23:35;0.90;99.90
52451;DHT22;38366;53.176;6.540;2022-11-20T07:26:05;0.90;99.90
52451;DHT22;38366;53.176;6.540;2022-11-20T07:28:31;1.00;99.90
52451;DHT22;38366;53.176;6.540;2022-11-20T07:30:57;1.90;99.90
52451;DHT22;38366;53.176;6.540;2022-11-20T07:33:22;1.00;99.90
52451;DHT22;38366;53.176;6.540;2022-11-20T07:35:48;1.00;99.90
52451;DHT22;38366;53.176;6.540;2022-11-20T07:38:14;1.00;99.90
52451;DHT22;38366;53.176;6.540;2022-11-20T07:40:39;1.00;99.90
52451;DHT22;38366;53.176;6.540;2022-11-20T07:43:05;1.00;99.90
52451;DHT22;38366;53.176;6.540;2022-11-20T07:45:30;1.00;99.90
52451;DHT22;38366;53.176;6.540;2022-11-20T07:47:56;1.00;99.90
52451;DHT22;38366;53.176;6.540;2022-11-20T07:50:22;2.00;99.90
52451;DHT22;38366;53.176;6.540;2022-11-20T07:52:48;1.00;99.90
52451;DHT22;38366;53.176;6.540;2022-11-20T07:55:14;1.00;99.90
52451;DHT22;38366;53.176;6.540;2022-11-20T07:57:40;1.10;99.90
52451;DHT22;38366;53.176;6.540;2022-11-20T08:00:09;1.30;99.90
52451;DHT22;38366;53.176;6.540;2022-11-20T08:02:37;1.10;99.90
52451;DHT22;38366;53.176;6.540;2022-11-20T08:05:04;1.10;99.90
52451;DHT22;38366;53.176;6.540;2022-11-20T08:07:36;1.10;99.90
52451;DHT22;38366;53.176;6.540;2022-11-20T08:10:02;1.20;99.90
52451;DHT22;38366;53.176;6.540;2022-11-20T08:12:28;2.10;99.90
52451;DHT22;38366;53.176;6.540;2022-11-20T08:15:11;1.20;99.90
52451;DHT22;38366;53.176;6.540;2022-11-20T08:17:37;1.30;99.90
52451;DHT22;38366;53.176;6.540;2022-11-20T08:20:03;1.20;99.90
52451;DHT22;38366;53.176;6.540;2022-11-20T08:22:29;1.20;99.90
52451;DHT22;38366;53.176;6.540;2022-11-20T08:24:55;2.00;99.90
52451;DHT22;38366;53.176;6.540;2022-11-20T08:27:21;1.30;99.90
52451;DHT22;38366;53.176;6.540;2022-11-20T08:29:46;1.30;99.90
52451;DHT22;38366;53.176;6.540;2022-11-20T08:32:12;1.30;99.90
52451;DHT22;38366;53.176;6.540;2022-11-20T08:34:38;1.40;99.90
52451;DHT22;38366;53.176;6.540;2022-11-20T08:37:03;2.80;99.90
52451;DHT22;38366;53.176;6.540;2022-11-20T08:39:29;1.30;99.90
52451;DHT22;38366;53.176;6.540;2022-11-20T08:41:55;1.30;99.90
52451;DHT22;38366;53.176;6.540;2022-11-20T08:44:20;1.90;99.90
52451;DHT22;38366;53.176;6.540;2022-11-20T08:46:46;2.50;99.90
52451;DHT22;38366;53.176;6.540;2022-11-20T08:49:13;1.20;99.90
52451;DHT22;38366;53.176;6.540;2022-11-20T08:51:40;2.10;99.90
52451;DHT22;38366;53.176;6.540;2022-11-20T08:54:06;1.30;99.90
52451;DHT22;38366;53.176;6.540;2022-11-20T08:56:32;1.30;99.90
52451;DHT22;38366;53.176;6.540;2022-11-20T08:58:58;2.30;99.90
52451;DHT22;38366;53.176;6.540;2022-11-20T09:01:27;1.40;99.90
52451;DHT22;38366;53.176;6.540;2022-11-20T09:03:57;2.30;99.90
52451;DHT22;38366;53.176;6.540;2022-11-20T09:06:24;1.30;99.90
52451;DHT22;38366;53.176;6.540;2022-11-20T09:08:54;1.40;99.90
52451;DHT22;38366;53.176;6.540;2022-11-20T09:11:20;1.40;99.90
52451;DHT22;38366;53.176;6.540;2022-11-20T09:13:46;1.40;99.90
52451;DHT22;38366;53.176;6.540;2022-11-20T09:16:11;1.30;99.90
52451;DHT22;38366;53.176;6.540;2022-11-20T09:18:37;1.40;99.90
52451;DHT22;38366;53.176;6.540;2022-11-20T09:21:08;1.40;99.90
52451;DHT22;38366;53.176;6.540;2022-11-20T09:23:37;1.40;99.90
52451;DHT22;38366;53.176;6.540;2022-11-20T09:26:09;2.00;99.90
52451;DHT22;38366;53.176;6.540;2022-11-20T09:28:35;1.40;99.90
52451;DHT22;38366;53.176;6.540;2022-11-20T09:31:03;1.40;99.90
52451;DHT22;38366;53.176;6.540;2022-11-20T09:33:29;1.40;99.90
52451;DHT22;38366;53.176;6.540;2022-11-20T09:35:55;1.40;99.90
52451;DHT22;38366;53.176;6.540;2022-11-20T09:38:21;2.70;99.90
52451;DHT22;38366;53.176;6.540;2022-11-20T09:40:57;2.00;99.90
52451;DHT22;38366;53.176;6.540;2022-11-20T09:44:01;1.40;99.90
52451;DHT22;38366;53.176;6.540;2022-11-20T09:46:40;1.50;99.90
52451;DHT22;38366;53.176;6.540;2022-11-20T09:49:32;3.10;99.90
52451;DHT22;38366;53.176;6.540;2022-11-20T09:54:41;1.60;99.90
52451;DHT22;38366;53.176;6.540;2022-11-20T09:57:10;3.40;99.90
52451;DHT22;38366;53.176;6.540;2022-11-20T09:59:46;3.00;99.90
52451;DHT22;38366;53.176;6.540;2022-11-20T10:04:47;1.80;99.90
52451;DHT22;38366;53.176;6.540;2022-11-20T10:07:18;1.70;99.90
52451;DHT22;38366;53.176;6.540;2022-11-20T10:09:56;2.20;99.90
52451;DHT22;38366;53.176;6.540;2022-11-20T10:15:53;1.80;99.90
52451;DHT22;38366;53.176;6.540;2022-11-20T10:18:57;1.80;99.90
52451;DHT22;38366;53.176;6.540;2022-11-20T10:21:52;1.80;99.90
52451;DHT22;38366;53.176;6.540;2022-11-20T10:30:12;1.90;99.90
52451;DHT22;38366;53.176;6.540;2022-11-20T10:32:41;2.00;99.90
52451;DHT22;38366;53.176;6.540;2022-11-20T10:37:47;2.00;99.90
52451;DHT22;38366;53.176;6.540;2022-11-20T10:40:48;2.00;99.90
52451;DHT22;38366;53.176;6.540;2022-11-20T10:43:31;2.20;99.90
52451;DHT22;38366;53.176;6.540;2022-11-20T10:46:05;3.30;99.90
52451;DHT22;38366;53.176;6.540;2022-11-20T10:48:34;2.30;99.90
52451;DHT22;38366;53.176;6.540;2022-11-20T10:51:37;2.40;99.90
52451;DHT22;38366;53.176;6.540;2022-11-20T10:54:27;2.50;99.90
52451;DHT22;38366;53.176;6.540;2022-11-20T10:57:07;2.50;99.90
52451;DHT22;38366;53.176;6.540;2022-11-20T10:59:45;2.50;99.90
52451;DHT22;38366;53.176;6.540;2022-11-20T11:02:22;2.60;99.90
52451;DHT22;38366;53.176;6.540;2022-11-20T11:04:53;2.60;99.90
52451;DHT22;38366;53.176;6.540;2022-11-20T11:09:53;2.80;99.90
52451;DHT22;38366;53.176;6.540;2022-11-20T11:12:20;2.90;99.90
52451;DHT22;38366;53.176;6.540;2022-11-20T11:14:51;4.20;99.90
52451;DHT22;38366;53.176;6.540;2022-11-20T11:20:03;2.90;99.90
52451;DHT22;38366;53.176;6.540;2022-11-20T11:22:32;2.90;99.90
52451;DHT22;38366;53.176;6.540;2022-11-20T11:24:58;4.00;99.90
52451;DHT22;38366;53.176;6.540;2022-11-20T11:27:27;3.00;99.90
52451;DHT22;38366;53.176;6.540;2022-11-20T11:30:12;2.90;99.90
52451;DHT22;38366;53.176;6.540;2022-11-20T11:32:39;2.90;99.90
52451;DHT22;38366;53.176;6.540;2022-11-20T11:35:06;2.90;99.90
52451;DHT22;38366;53.176;6.540;2022-11-20T11:37:43;3.00;99.90
52451;DHT22;38366;53.176;6.540;2022-11-20T11:40:11;3.00;99.90
52451;DHT22;38366;53.176;6.540;2022-11-20T11:42:43;3.10;99.90
52451;DHT22;38366;53.176;6.540;2022-11-20T11:45:15;3.20;99.90
52451;DHT22;38366;53.176;6.540;2022-11-20T11:55:44;3.40;99.90
52451;DHT22;38366;53.176;6.540;2022-11-20T11:58:14;3.30;99.90
52451;DHT22;38366;53.176;6.540;2022-11-20T12:01:07;3.40;99.90
52451;DHT22;38366;53.176;6.540;2022-11-20T12:03:40;3.30;99.90
52451;DHT22;38366;53.176;6.540;2022-11-20T12:06:14;3.40;99.90
52451;DHT22;38366;53.176;6.540;2022-11-20T12:08:51;3.70;99.90
52451;DHT22;38366;53.176;6.540;2022-11-20T12:11:34;4.10;99.90
52451;DHT22;38366;53.176;6.540;2022-11-20T12:16:56;5.00;99.90
52451;DHT22;38366;53.176;6.540;2022-11-20T12:19:23;5.60;99.90
52451;DHT22;38366;53.176;6.540;2022-11-20T12:27:28;7.30;99.90
52451;DHT22;38366;53.176;6.540;2022-11-20T12:30:07;7.80;99.90
52451;DHT22;38366;53.176;6.540;2022-11-20T12:35:10;8.00;99.90
52451;DHT22;38366;53.176;6.540;2022-11-20T12:37:45;8.10;99.90
52451;DHT22;38366;53.176;6.540;2022-11-20T12:43:25;7.70;99.90
52451;DHT22;38366;53.176;6.540;2022-11-20T13:00:01;5.50;99.90
52451;DHT22;38366;53.176;6.540;2022-11-20T13:07:58;5.00;99.90
52451;DHT22;38366;53.176;6.540;2022-11-20T13:13:22;5.00;99.90
52451;DHT22;38366;53.176;6.540;2022-11-20T13:16:17;5.10;99.90
52451;DHT22;38366;53.176;6.540;2022-11-20T13:18:45;5.00;99.90
52451;DHT22;38366;53.176;6.540;2022-11-20T13:21:36;5.00;99.90
52451;DHT22;38366;53.176;6.540;2022-11-20T13:29:44;4.80;99.90
52451;DHT22;38366;53.176;6.540;2022-11-20T13:34:39;4.80;99.90
52451;DHT22;38366;53.176;6.540;2022-11-20T13:37:05;5.40;99.90
52451;DHT22;38366;53.176;6.540;2022-11-20T13:39:35;4.80;99.90
52451;DHT22;38366;53.176;6.540;2022-11-20T13:42:19;4.90;99.90
52451;DHT22;38366;53.176;6.540;2022-11-20T13:44:54;4.90;99.90
52451;DHT22;38366;53.176;6.540;2022-11-20T13:47:23;5.30;99.90
52451;DHT22;38366;53.176;6.540;2022-11-20T13:49:49;4.80;99.90
52451;DHT22;38366;53.176;6.540;2022-11-20T13:55:31;4.60;99.90
52451;DHT22;38366;53.176;6.540;2022-11-20T14:01:09;4.50;99.90
52451;DHT22;38366;53.176;6.540;2022-11-20T14:03:35;4.40;99.90
52451;DHT22;38366;53.176;6.540;2022-11-20T14:06:11;4.30;99.90
52451;DHT22;38366;53.176;6.540;2022-11-20T14:08:48;4.40;99.90
52451;DHT22;38366;53.176;6.540;2022-11-20T14:11:22;4.30;99.90
52451;DHT22;38366;53.176;6.540;2022-11-20T14:13:54;4.40;99.90
52451;DHT22;38366;53.176;6.540;2022-11-20T14:16:21;4.30;99.90
52451;DHT22;38366;53.176;6.540;2022-11-20T14:18:47;4.20;99.90
52451;DHT22;38366;53.176;6.540;2022-11-20T14:21:25;4.20;99.90
52451;DHT22;38366;53.176;6.540;2022-11-20T14:24:04;4.30;99.90
52451;DHT22;38366;53.176;6.540;2022-11-20T14:26:31;4.20;99.90
52451;DHT22;38366;53.176;6.540;2022-11-20T14:28:57;5.00;99.90
52451;DHT22;38366;53.176;6.540;2022-11-20T14:31:24;4.10;99.90
52451;DHT22;38366;53.176;6.540;2022-11-20T14:33:52;4.00;99.90
52451;DHT22;38366;53.176;6.540;2022-11-20T14:36:21;4.00;99.90
52451;DHT22;38366;53.176;6.540;2022-11-20T14:38:47;3.90;99.90
52451;DHT22;38366;53.176;6.540;2022-11-20T14:43:47;3.90;99.90
52451;DHT22;38366;53.176;6.540;2022-11-20T14:46:14;3.80;99.90
52451;DHT22;38366;53.176;6.540;2022-11-20T14:48:49;3.80;99.90
52451;DHT22;38366;53.176;6.540;2022-11-20T14:51:33;3.80;99.90
52451;DHT22;38366;53.176;6.540;2022-11-20T14:54:17;4.30;99.90
52451;DHT22;38366;53.176;6.540;2022-11-20T14:57:00;3.70;99.90
52451;DHT22;38366;53.176;6.540;2022-11-20T14:59:29;3.60;99.90
52451;DHT22;38366;53.176;6.540;2022-11-20T15:02:01;3.80;99.90
52451;DHT22;38366;53.176;6.540;2022-11-20T15:04:27;4.70;99.90
52451;DHT22;38366;53.176;6.540;2022-11-20T15:06:54;4.90;99.90
52451;DHT22;38366;53.176;6.540;2022-11-20T15:09:22;3.30;99.90
52451;DHT22;38366;53.176;6.540;2022-11-20T15:11:58;3.30;99.90
52451;DHT22;38366;53.176;6.540;2022-11-20T15:14:27;3.40;99.90
52451;DHT22;38366;53.176;6.540;2022-11-20T15:16:53;4.10;99.90
52451;DHT22;38366;53.176;6.540;2022-11-20T15:19:21;3.20;99.90
52451;DHT22;38366;53.176;6.540;2022-11-20T15:21:48;3.00;99.90
52451;DHT22;38366;53.176;6.540;2022-11-20T15:24:14;3.00;99.90
52451;DHT22;38366;53.176;6.540;2022-11-20T15:26:39;2.90;99.90
52451;DHT22;38366;53.176;6.540;2022-11-20T15:29:09;2.80;99.90
52451;DHT22;38366;53.176;6.540;2022-11-20T15:31:36;2.80;99.90
52451;DHT22;38366;53.176;6.540;2022-11-20T15:34:02;3.10;99.90
52451;DHT22;38366;53.176;6.540;2022-11-20T15:36:28;2.90;99.90
52451;DHT22;38366;53.176;6.540;2022-11-20T15:38:54;2.90;99.90
52451;DHT22;38366;53.176;6.540;2022-11-20T15:41:19;4.40;99.90
52451;DHT22;38366;53.176;6.540;2022-11-20T15:43:45;2.80;99.90
52451;DHT22;38366;53.176;6.540;2022-11-20T15:46:14;2.90;99.90
52451;DHT22;38366;53.176;6.540;2022-11-20T15:48:45;3.10;99.90
52451;DHT22;38366;53.176;6.540;2022-11-20T15:53:41;2.80;99.90
52451;DHT22;38366;53.176;6.540;2022-11-20T15:56:14;2.80;99.90
52451;DHT22;38366;53.176;6.540;2022-11-20T15:58:40;3.70;99.90
52451;DHT22;38366;53.176;6.540;2022-11-20T16:01:10;2.70;99.90
52451;DHT22;38366;53.176;6.540;2022-11-20T16:03:36;3.10;99.90
52451;DHT22;38366;53.176;6.540;2022-11-20T16:06:01;4.10;99.90
52451;DHT22;38366;53.176;6.540;2022-11-20T16:08:27;2.70;99.90
52451;DHT22;38366;53.176;6.540;2022-11-20T16:10:53;2.60;99.90
52451;DHT22;38366;53.176;6.540;2022-11-20T16:13:19;4.00;99.90
52451;DHT22;38366;53.176;6.540;2022-11-20T16:16:16;2.70;99.90
52451;DHT22;38366;53.176;6.540;2022-11-20T16:18:49;2.60;99.90
52451;DHT22;38366;53.176;6.540;2022-11-20T16:21:15;2.60;99.90
52451;DHT22;38366;53.176;6.540;2022-11-20T16:23:41;2.60;99.90
52451;DHT22;38366;53.176;6.540;2022-11-20T16:26:17;2.60;99.90
52451;DHT22;38366;53.176;6.540;2022-11-20T16:28:44;2.60;99.90
52451;DHT22;38366;53.176;6.540;2022-11-20T16:31:12;2.60;99.90
52451;DHT22;38366;53.176;6.540;2022-11-20T16:33:42;2.60;99.90
52451;DHT22;38366;53.176;6.540;2022-11-20T16:36:12;2.50;99.90
52451;DHT22;38366;53.176;6.540;2022-11-20T16:38:38;2.60;99.90
52451;DHT22;38366;53.176;6.540;2022-11-20T16:41:05;2.60;99.90
52451;DHT22;38366;53.176;6.540;2022-11-20T16:43:31;2.60;99.90
52451;DHT22;38366;53.176;6.540;2022-11-20T16:45:57;2.50;99.90
52451;DHT22;38366;53.176;6.540;2022-11-20T16:48:23;2.60;99.90
52451;DHT22;38366;53.176;6.540;2022-11-20T16:50:50;2.50;99.90
52451;DHT22;38366;53.176;6.540;2022-11-20T16:53:21;2.50;99.90
52451;DHT22;38366;53.176;6.540;2022-11-20T16:55:47;2.50;99.90
52451;DHT22;38366;53.176;6.540;2022-11-20T16:58:14;2.50;99.90
52451;DHT22;38366;53.176;6.540;2022-11-20T17:00:40;2.90;99.90
52451;DHT22;38366;53.176;6.540;2022-11-20T17:03:06;3.60;99.90
52451;DHT22;38366;53.176;6.540;2022-11-20T17:05:33;2.50;99.90
52451;DHT22;38366;53.176;6.540;2022-11-20T17:07:59;2.50;99.90
52451;DHT22;38366;53.176;6.540;2022-11-20T17:10:26;2.50;99.90
52451;DHT22;38366;53.176;6.540;2022-11-20T17:12:52;2.50;99.90
52451;DHT22;38366;53.176;6.540;2022-11-20T17:15:17;2.60;99.90
52451;DHT22;38366;53.176;6.540;2022-11-20T17:17:43;2.50;99.90
52451;DHT22;38366;53.176;6.540;2022-11-20T17:20:09;2.50;99.90
52451;DHT22;38366;53.176;6.540;2022-11-20T17:22:36;2.50;99.90
52451;DHT22;38366;53.176;6.540;2022-11-20T17:25:03;2.50;99.90
52451;DHT22;38366;53.176;6.540;2022-11-20T17:27:28;2.50;99.90
52451;DHT22;38366;53.176;6.540;2022-11-20T17:29:54;3.10;99.90
52451;DHT22;38366;53.176;6.540;2022-11-20T17:32:22;2.50;99.90